Ashland, WI

4:34 PM CST on February 07, 2016 (GMT -0600)
Near Northland College | | Change Station
CLOSE
Current Station
Personal Weather Station
Location: Ashland, WI
Elevation: 689 ft
Nearby Weather Stations
Active Advisory: Winter Weather Advisory

Elev 689 ft 46.58 °N, 90.88 °W | Updated 56 seconds ago

Overcast
Overcast
35.0 °F
Feels Like 31 °F
N
5.0
Wind Variable Wind from SW
Gusts 8.0 mph

Today
High -- | Low -- °F
--% Chance of Precip.
Yesterday
High -- | Low -- °F
Precip. -- in
Pressure 29.50 in
Visibility 9.0 miles
Clouds Few 900 ft
Scattered Clouds 1500 ft
Overcast 3500 ft
Windchill 31 °F
Dew Point 31 °F
Humidity 85%
Rainfall 0.00 in
Snow Depth Not available.
7:19 AM 5:15 PM
Waning Crescent, 1% visible
SPECI KASX 072204Z AUTO 23008KT 9SM FEW009 SCT015 OVC035 02/01 A2950 RMK AO2 T00170006
Pressure 29.50 in
Visibility 9.0 miles
Clouds Few 900 ft
Scattered Clouds 1500 ft
Overcast 3500 ft
Windchill 31 °F
Dew Point 31 °F
Humidity 85%
Rainfall 0.00 in
Snow Depth Not available.
7:19 AM 5:15 PM
Waning Crescent, 1% visible
SPECI KASX 072204Z AUTO 23008KT 9SM FEW009 SCT015 OVC035 02/01 A2950 RMK AO2 T00170006

10-Day Weather Forecast

Almanac

Astronomy

Feb. 07, 2016 Rise Set
Actual Time
Civil Twilight
Nautical Twilight
Astronomical Twilight
Moon
Length of Visible Light
Length of Day
Tomorrow will be .
, % of the Moon is Illuminated

Today's Extremes

State Highs State Lows

Community

WunderPhotos

Upload Photos

1,891,324 photos uploaded!

WunderBlog® & News

Nearby

Air Quality

  Air Quality AQ Index Pollutant
Not available.

Snow Depth

Station Depth Elevation

Earthquake Activity

City Distance Mag. Time & Date
Minimum magnitude displayed is 2.5.

Coastal Water Temperatures

Place Temperature

Stations

Nearby Weather Stations

Station Location Temp. Windchill Dew Point Humidity Wind Precip. Elev Updated Type
                   

Watches & Warnings

Winter Weather Advisory
Issued: 3:16 PM CST Feb. 7, 2016 – National Weather Service

... Winter Weather Advisory now in effect until 6 am CST Tuesday...

* locations... portions of northwest Wisconsin... including the
cities of Washburn... Bayfield... Ashland... Mellen... Hurley...
and Mercer.

* Snow accumulations... 1 to 3 inches.

* Timing... the period of most intense snowfall will be from 8 PM
tonight through 6 am Monday.

* Winds... northwest 10 to 15 mph with gusts up to 25 mph.

* Visibilities... reduced to less than one mile at times in snow
and blowing snow.

Precautionary/preparedness actions...

A Winter Weather Advisory for snow and blowing snow means that
visibilities will be limited due to a combination of falling and
blowing snow. Use caution when traveling... especially in open
areas that are more exposed to the wind. Roads may be slick and
hazardous... so allow extra time to reach your destination.